createdAt,value
2022-08-24T00:00:35.056Z,19.38
2022-08-24T00:05:36.711Z,19.22
2022-08-24T00:10:38.310Z,19.44
2022-08-24T00:15:41.356Z,19.50
2022-08-24T00:20:45.199Z,19.49
2022-08-24T00:25:47.057Z,19.47
2022-08-24T00:30:48.722Z,19.21
2022-08-24T00:35:50.346Z,19.21
2022-08-24T00:40:52.119Z,19.21
2022-08-24T00:45:59.791Z,19.19
2022-08-24T00:51:06.662Z,18.67
2022-08-24T00:56:15.096Z,18.49
2022-08-24T01:01:17.397Z,18.65
2022-08-24T01:06:20.279Z,18.71
2022-08-24T01:11:25.184Z,18.63
2022-08-24T01:16:45.470Z,18.64
2022-08-24T01:21:52.740Z,18.09
2022-08-24T01:26:54.532Z,18.40
2022-08-24T01:31:56.714Z,18.17
2022-08-24T01:37:00.256Z,18.18
2022-08-24T01:42:02.818Z,18.27
2022-08-24T01:47:06.675Z,18.14
2022-08-24T01:52:12.676Z,17.92
2022-08-24T01:57:16.995Z,18.01
2022-08-24T02:02:27.273Z,18.06
2022-08-24T02:07:33.008Z,18.03
2022-08-24T02:12:36.486Z,17.85
2022-08-24T02:17:38.933Z,17.74
2022-08-24T02:22:40.621Z,17.73
2022-08-24T02:27:42.407Z,17.74
2022-08-24T02:32:45.482Z,17.63
2022-08-24T02:37:47.148Z,17.52
2022-08-24T02:42:48.848Z,17.52
2022-08-24T02:47:53.836Z,17.48
2022-08-24T02:52:55.521Z,17.43
2022-08-24T02:57:58.467Z,17.44
2022-08-24T03:03:00.350Z,17.34
2022-08-24T03:08:02.170Z,16.95
2022-08-24T03:13:05.805Z,16.86
2022-08-24T03:18:07.518Z,16.98
2022-08-24T03:23:09.131Z,16.91
2022-08-24T03:28:12.050Z,16.87
2022-08-24T03:33:14.360Z,16.84
2022-08-24T03:38:16.490Z,16.84
2022-08-24T03:43:36.997Z,16.86
2022-08-24T03:48:40.531Z,16.33
2022-08-24T03:53:43.538Z,16.50
2022-08-24T03:58:46.034Z,16.56
2022-08-24T04:03:49.133Z,16.62
2022-08-24T04:08:51.931Z,16.66
2022-08-24T04:13:56.734Z,16.58
2022-08-24T04:18:58.381Z,16.46
2022-08-24T04:24:01.280Z,16.51
2022-08-24T04:29:03.428Z,16.58
2022-08-24T04:34:11.674Z,16.59
2022-08-24T04:39:14.240Z,16.56
2022-08-24T04:44:16.904Z,16.55
2022-08-24T04:49:18.527Z,16.70
2022-08-24T04:54:20.122Z,16.90
2022-08-24T04:59:21.766Z,16.97
2022-08-24T05:04:24.328Z,17.03
2022-08-24T05:09:25.936Z,17.28
2022-08-24T05:14:29.251Z,17.38
2022-08-24T05:19:30.939Z,17.55
2022-08-24T05:24:32.570Z,17.83
2022-08-24T05:29:34.831Z,17.93
2022-08-24T05:34:36.646Z,17.90
2022-08-24T05:39:38.858Z,17.76
2022-08-24T05:44:40.500Z,17.90
2022-08-24T05:49:43.384Z,18.01
2022-08-24T05:54:45.993Z,18.16
2022-08-24T05:59:47.678Z,18.28
2022-08-24T06:04:49.666Z,18.45
2022-08-24T06:09:54.100Z,18.55
2022-08-24T06:14:55.703Z,18.70
2022-08-24T06:19:57.506Z,18.86
2022-08-24T06:25:18.256Z,18.98
2022-08-24T06:30:20.064Z,19.27
2022-08-24T06:35:22.134Z,19.46
2022-08-24T06:40:25.897Z,19.58
2022-08-24T06:45:27.749Z,19.69
2022-08-24T06:50:29.417Z,19.74
2022-08-24T06:55:31.210Z,19.81
2022-08-24T07:00:32.932Z,19.94
2022-08-24T07:05:35.142Z,20.09
2022-08-24T07:10:38.211Z,20.06
2022-08-24T07:15:40.268Z,20.15
2022-08-24T07:20:42.936Z,20.15
2022-08-24T07:25:49.551Z,20.17
2022-08-24T07:30:52.167Z,20.37
2022-08-24T07:35:56.155Z,20.50
2022-08-24T07:41:38.167Z,21.11
2022-08-24T07:46:22.472Z,21.98
2022-08-24T07:51:24.818Z,23.02
2022-08-24T07:56:28.513Z,23.75
2022-08-24T08:01:30.263Z,24.56
2022-08-24T08:06:32.051Z,25.24
2022-08-24T08:11:33.717Z,25.85
2022-08-24T08:16:35.455Z,25.73
2022-08-24T08:22:01.236Z,26.13
2022-08-24T08:27:03.075Z,26.05
2022-08-24T08:32:04.751Z,26.09
2022-08-24T08:37:06.619Z,26.30
2022-08-24T08:42:14.961Z,26.56
2022-08-24T08:47:44.793Z,26.91
2022-08-24T08:52:46.477Z,27.20
2022-08-24T08:58:11.896Z,27.71
2022-08-24T09:03:29.777Z,28.11
2022-08-24T09:08:40.348Z,28.09
2022-08-24T09:14:11.655Z,28.13
2022-08-24T09:19:35.059Z,28.25
2022-08-24T09:24:54.615Z,28.63
2022-08-24T09:30:02.311Z,28.75
2022-08-24T09:35:08.321Z,28.82
2022-08-24T09:40:28.794Z,29.22
2022-08-24T09:45:52.078Z,29.45
2022-08-24T09:51:09.487Z,29.33
2022-08-24T09:56:18.426Z,29.56
2022-08-24T10:01:26.203Z,29.72
2022-08-24T10:06:48.771Z,29.98
2022-08-24T10:12:11.649Z,30.20
2022-08-24T10:17:32.133Z,29.74
2022-08-24T10:22:47.663Z,30.22
2022-08-24T10:28:26.551Z,30.07
2022-08-24T10:33:44.466Z,30.10
2022-08-24T10:39:12.860Z,30.07
2022-08-24T10:44:42.879Z,30.25
2022-08-24T10:50:06.382Z,30.61
2022-08-24T10:55:30.165Z,30.17
2022-08-24T11:00:32.176Z,30.22
2022-08-24T11:05:47.144Z,30.49
2022-08-24T11:11:14.436Z,30.33
2022-08-24T11:16:25.935Z,30.34
2022-08-24T11:21:38.144Z,30.52
2022-08-24T11:26:53.688Z,30.68
2022-08-24T11:31:56.386Z,30.59
2022-08-24T11:36:58.479Z,30.73
2022-08-24T11:42:12.642Z,30.84
2022-08-24T11:47:20.324Z,31.15
2022-08-24T11:52:33.150Z,31.11
2022-08-24T11:57:48.359Z,31.29
2022-08-24T12:02:54.455Z,31.41
2022-08-24T12:08:21.641Z,31.44
2022-08-24T12:13:50.294Z,31.66
2022-08-24T12:19:03.532Z,31.58
2022-08-24T12:24:11.721Z,31.51
2022-08-24T12:29:28.835Z,31.78
2022-08-24T12:35:05.811Z,31.80
2022-08-24T12:40:41.545Z,32.19
2022-08-24T12:45:43.825Z,32.20
2022-08-24T12:50:54.287Z,32.04
2022-08-24T12:56:14.768Z,32.12
2022-08-24T13:01:18.382Z,32.58
2022-08-24T13:06:38.449Z,32.61
2022-08-24T13:11:40.415Z,32.36
2022-08-24T13:16:50.852Z,32.37
2022-08-24T13:21:55.748Z,32.51
2022-08-24T13:27:12.605Z,32.76
2022-08-24T13:32:29.442Z,32.82
2022-08-24T13:37:33.058Z,33.07
2022-08-24T13:43:08.223Z,33.09
2022-08-24T13:48:47.689Z,32.85
2022-08-24T13:54:20.370Z,32.88
2022-08-24T14:00:01.631Z,32.84
2022-08-24T14:05:11.751Z,33.10
2022-08-24T14:10:23.440Z,32.95
2022-08-24T14:15:43.869Z,32.96
2022-08-24T14:20:57.626Z,32.82
2022-08-24T14:26:33.182Z,32.69
2022-08-24T14:31:35.129Z,32.75
2022-08-24T14:36:57.480Z,32.89
2022-08-24T14:42:20.393Z,32.70
2022-08-24T14:47:52.959Z,32.86
2022-08-24T14:53:09.853Z,32.83
2022-08-24T14:58:29.077Z,32.60
2022-08-24T15:03:54.843Z,32.63
2022-08-24T15:09:36.446Z,32.58
2022-08-24T15:14:46.793Z,32.60
2022-08-24T15:20:18.931Z,32.64
2022-08-24T15:25:24.478Z,32.78
2022-08-24T15:30:33.215Z,32.77
2022-08-24T15:35:41.594Z,32.66
2022-08-24T15:40:46.088Z,32.64
2022-08-24T15:45:51.986Z,32.80
2022-08-24T15:50:56.000Z,32.80
2022-08-24T15:55:58.255Z,32.61
2022-08-24T16:01:30.770Z,32.34
2022-08-24T16:06:32.360Z,32.19
2022-08-24T16:11:38.508Z,32.14
2022-08-24T16:16:45.101Z,32.37
2022-08-24T16:22:06.755Z,32.43
2022-08-24T16:27:08.297Z,32.36
2022-08-24T16:32:21.443Z,32.34
2022-08-24T16:37:32.434Z,32.16
2022-08-24T16:42:35.021Z,32.16
2022-08-24T16:47:37.405Z,32.00
2022-08-24T16:52:39.010Z,32.02
2022-08-24T16:57:40.750Z,32.13
2022-08-24T17:02:42.937Z,31.98
2022-08-24T17:07:45.051Z,32.05
2022-08-24T17:12:46.670Z,31.95
2022-08-24T17:18:03.706Z,31.77
2022-08-24T17:23:05.879Z,31.70
2022-08-24T17:28:09.246Z,31.69
2022-08-24T17:33:11.522Z,31.49
2022-08-24T17:38:13.243Z,31.35
2022-08-24T17:43:15.260Z,31.22
2022-08-24T17:48:24.046Z,31.08
2022-08-24T17:53:25.735Z,30.91
2022-08-24T17:58:28.755Z,30.75
2022-08-24T18:03:30.500Z,30.55
2022-08-24T18:08:32.183Z,30.35
2022-08-24T18:13:33.850Z,30.07
2022-08-24T18:18:35.646Z,29.83
2022-08-24T18:23:43.441Z,29.53
2022-08-24T18:28:45.443Z,29.30
2022-08-24T18:33:47.033Z,29.06
2022-08-24T18:38:48.676Z,28.89
2022-08-24T18:43:50.450Z,28.68
2022-08-24T18:48:52.092Z,28.50
2022-08-24T18:54:01.631Z,28.27
2022-08-24T18:59:04.687Z,28.05
2022-08-24T19:04:12.135Z,27.74
2022-08-24T19:09:15.702Z,27.56
2022-08-24T19:14:17.824Z,27.41
2022-08-24T19:19:20.272Z,27.28
2022-08-24T19:24:26.341Z,27.18
2022-08-24T19:29:53.634Z,26.79
2022-08-24T19:34:52.014Z,26.32
2022-08-24T19:39:53.666Z,26.02
2022-08-24T19:45:16.238Z,25.82
2022-08-24T19:50:20.367Z,25.82
2022-08-24T19:55:23.147Z,25.81
2022-08-24T20:00:35.118Z,25.71
2022-08-24T20:05:36.970Z,25.60
2022-08-24T20:10:39.222Z,25.38
2022-08-24T20:15:41.111Z,25.34
2022-08-24T20:20:43.402Z,25.20
2022-08-24T20:25:46.318Z,25.17
2022-08-24T20:30:48.016Z,24.97
2022-08-24T20:35:50.321Z,24.80
2022-08-24T20:40:52.492Z,24.78
2022-08-24T20:45:54.862Z,24.68
2022-08-24T20:50:56.869Z,24.48
2022-08-24T20:56:05.444Z,24.42
2022-08-24T21:01:08.390Z,24.11
2022-08-24T21:06:14.696Z,24.12
2022-08-24T21:11:16.891Z,24.09
2022-08-24T21:16:18.820Z,24.08
2022-08-24T21:21:20.601Z,23.89
2022-08-24T21:26:26.583Z,23.26
2022-08-24T21:31:28.786Z,23.31
2022-08-24T21:36:32.070Z,23.36
2022-08-24T21:41:33.758Z,23.35
2022-08-24T21:46:38.306Z,23.40
2022-08-24T21:51:40.649Z,23.20
2022-08-24T21:56:42.581Z,23.04
2022-08-24T22:01:45.051Z,23.09
2022-08-24T22:06:46.812Z,22.72
2022-08-24T22:11:48.909Z,22.48
2022-08-24T22:16:50.546Z,22.48
2022-08-24T22:21:52.164Z,22.19
2022-08-24T22:26:53.761Z,21.95
2022-08-24T22:31:55.539Z,22.06
2022-08-24T22:37:02.124Z,22.10
2022-08-24T22:42:04.606Z,21.90
2022-08-24T22:47:13.113Z,21.40
2022-08-24T22:52:16.784Z,21.53
2022-08-24T22:57:19.895Z,21.73
2022-08-24T23:02:22.348Z,21.62
2022-08-24T23:07:24.427Z,21.67
2022-08-24T23:12:26.465Z,21.73
2022-08-24T23:17:28.177Z,21.75
2022-08-24T23:22:32.920Z,21.71
2022-08-24T23:27:37.937Z,21.60
2022-08-24T23:32:40.974Z,21.58
2022-08-24T23:37:42.640Z,21.42
2022-08-24T23:42:44.436Z,21.21
2022-08-24T23:47:46.064Z,21.01
2022-08-24T23:52:47.735Z,20.79
2022-08-24T23:57:50.215Z,20.74
